createdAt,value
2023-01-05T00:00:35.409Z,0.70
2023-01-05T00:04:40.004Z,0.88
2023-01-05T00:08:46.400Z,0.70
2023-01-05T00:13:06.883Z,0.90
2023-01-05T00:17:31.586Z,1.10
2023-01-05T00:21:55.487Z,0.93
2023-01-05T00:25:58.484Z,0.95
2023-01-05T00:30:02.638Z,0.82
2023-01-05T00:34:07.611Z,0.68
2023-01-05T00:38:11.404Z,0.90
2023-01-05T00:42:14.355Z,0.80
2023-01-05T00:46:17.758Z,0.70
2023-01-05T00:50:24.698Z,1.13
2023-01-05T00:54:28.471Z,0.70
2023-01-05T01:02:34.855Z,0.75
2023-01-05T01:06:39.085Z,0.40
2023-01-05T01:10:42.222Z,0.50
2023-01-05T01:14:48.992Z,0.60
2023-01-05T01:18:53.740Z,0.50
2023-01-05T01:23:00.503Z,0.73
2023-01-05T01:27:04.084Z,0.40
2023-01-05T01:31:08.687Z,0.52
2023-01-05T01:35:12.246Z,0.55
2023-01-05T01:39:17.710Z,0.52
2023-01-05T01:43:40.131Z,0.80
2023-01-05T01:47:46.274Z,0.43
2023-01-05T01:51:50.657Z,0.60
2023-01-05T01:55:56.336Z,0.63
2023-01-05T02:00:02.177Z,0.90
2023-01-05T02:04:06.680Z,1.15
2023-01-05T02:08:26.044Z,1.40
2023-01-05T02:12:39.640Z,1.20
2023-01-05T02:16:50.469Z,1.42
2023-01-05T02:21:17.510Z,1.10
2023-01-05T02:25:48.134Z,1.45
2023-01-05T02:30:42.824Z,1.90
2023-01-05T02:34:54.590Z,1.45
2023-01-05T02:39:02.601Z,1.30
2023-01-05T02:43:07.099Z,1.70
2023-01-05T02:47:37.707Z,1.42
2023-01-05T02:51:46.660Z,1.60
2023-01-05T02:55:53.325Z,1.77
2023-01-05T02:59:57.335Z,2.05
2023-01-05T03:04:05.171Z,1.83
2023-01-05T03:08:32.100Z,1.90
2023-01-05T03:12:54.545Z,2.20
2023-01-05T03:16:58.687Z,1.60
2023-01-05T03:21:03.361Z,1.65
2023-01-05T03:25:27.920Z,2.10
2023-01-05T03:29:51.297Z,2.60
2023-01-05T03:34:16.445Z,1.70
2023-01-05T03:38:25.066Z,1.63
2023-01-05T03:42:39.052Z,1.60
2023-01-05T03:46:43.281Z,2.38
2023-01-05T03:50:46.834Z,1.60
2023-01-05T03:54:49.958Z,2.05
2023-01-05T03:58:54.895Z,1.85
2023-01-05T04:02:58.556Z,2.47
2023-01-05T04:07:02.386Z,1.95
2023-01-05T04:11:13.384Z,2.00
2023-01-05T04:15:18.918Z,1.77
2023-01-05T04:19:22.495Z,2.75
2023-01-05T04:23:25.975Z,2.25
2023-01-05T04:27:29.486Z,1.98
2023-01-05T04:31:34.417Z,1.98
2023-01-05T04:35:37.825Z,2.58
2023-01-05T04:39:41.122Z,1.95
2023-01-05T04:43:44.401Z,1.73
2023-01-05T04:47:48.544Z,1.90
2023-01-05T04:51:51.439Z,1.63
2023-01-05T04:55:54.593Z,1.38
2023-01-05T04:59:57.738Z,1.65
2023-01-05T05:04:02.628Z,1.83
2023-01-05T05:08:07.476Z,1.55
2023-01-05T05:12:13.327Z,1.50
2023-01-05T05:16:16.421Z,1.70
2023-01-05T05:20:24.447Z,1.52
2023-01-05T05:24:30.898Z,1.63
2023-01-05T05:28:38.234Z,1.73
2023-01-05T05:32:44.472Z,1.60
2023-01-05T05:36:50.921Z,1.73
2023-01-05T05:40:54.384Z,1.48
2023-01-05T05:45:03.503Z,1.60
2023-01-05T05:49:13.196Z,1.90
2023-01-05T05:53:17.978Z,1.85
2023-01-05T05:57:21.275Z,1.70
2023-01-05T06:01:24.919Z,1.70
2023-01-05T06:05:28.128Z,1.75
2023-01-05T06:09:32.672Z,1.73
2023-01-05T06:13:36.244Z,2.33
2023-01-05T06:17:39.842Z,1.70
2023-01-05T06:21:43.716Z,1.83
2023-01-05T06:25:49.545Z,1.88
2023-01-05T06:29:52.758Z,1.90
2023-01-05T06:33:56.176Z,1.88
2023-01-05T06:37:59.097Z,2.42
2023-01-05T06:42:05.798Z,2.45
2023-01-05T06:46:09.053Z,1.88
2023-01-05T06:50:12.273Z,2.10
2023-01-05T06:54:15.479Z,2.17
2023-01-05T06:58:19.884Z,1.70
2023-01-05T07:02:22.949Z,2.00
2023-01-05T07:06:26.187Z,1.48
2023-01-05T07:10:29.633Z,1.55
2023-01-05T07:14:34.146Z,2.15
2023-01-05T07:18:37.468Z,2.60
2023-01-05T07:22:40.970Z,2.08
2023-01-05T07:26:43.836Z,2.15
2023-01-05T07:30:53.435Z,2.38
2023-01-05T07:34:57.803Z,2.97
2023-01-05T07:39:01.043Z,2.40
2023-01-05T07:43:04.649Z,2.42
2023-01-05T07:47:09.563Z,2.90
2023-01-05T07:51:13.440Z,3.25
2023-01-05T07:59:22.440Z,2.28
2023-01-05T08:03:27.200Z,2.20
2023-01-05T08:07:30.057Z,1.95
2023-01-05T08:11:33.562Z,2.40
2023-01-05T08:15:37.105Z,2.90
2023-01-05T08:19:42.543Z,3.05
2023-01-05T08:23:46.229Z,2.38
2023-01-05T08:27:49.277Z,2.70
2023-01-05T08:31:52.286Z,2.55
2023-01-05T08:35:56.655Z,2.63
2023-01-05T08:40:00.150Z,3.10
2023-01-05T08:44:04.807Z,3.05
2023-01-05T08:48:09.425Z,4.35
2023-01-05T08:52:15.734Z,3.50
2023-01-05T08:56:19.328Z,3.03
2023-01-05T09:00:22.982Z,2.65
2023-01-05T09:04:27.649Z,2.58
2023-01-05T09:08:32.516Z,2.83
2023-01-05T09:12:36.203Z,2.47
2023-01-05T09:21:02.260Z,2.53
2023-01-05T09:25:07.329Z,2.42
2023-01-05T09:29:12.405Z,2.20
2023-01-05T09:33:15.329Z,2.50
2023-01-05T09:37:18.266Z,2.45
2023-01-05T09:41:26.084Z,2.00
2023-01-05T09:45:29.336Z,2.55
2023-01-05T09:49:32.978Z,2.60
2023-01-05T09:53:36.140Z,2.88
2023-01-05T09:57:41.671Z,3.03
2023-01-05T10:01:55.405Z,2.30
2023-01-05T10:06:01.221Z,9.18
2023-01-05T10:10:15.083Z,3.03
2023-01-05T10:14:41.586Z,3.33
2023-01-05T10:18:46.537Z,2.05
2023-01-05T10:22:58.791Z,2.53
2023-01-05T10:27:28.690Z,2.92
2023-01-05T10:31:46.729Z,2.28
2023-01-05T10:36:02.353Z,2.55
2023-01-05T10:40:32.480Z,3.42
2023-01-05T10:45:07.676Z,2.42
2023-01-05T10:49:24.813Z,2.17
2023-01-05T10:53:33.297Z,2.10
2023-01-05T10:57:42.053Z,2.53
2023-01-05T11:01:53.290Z,2.00
2023-01-05T11:06:07.754Z,2.88
2023-01-05T11:10:30.344Z,2.65
2023-01-05T11:14:42.609Z,2.00
2023-01-05T11:19:01.173Z,2.05
2023-01-05T11:23:37.018Z,2.42
2023-01-05T11:27:42.632Z,2.17
2023-01-05T11:31:56.071Z,2.40
2023-01-05T11:36:02.444Z,2.42
2023-01-05T11:40:30.690Z,2.47
2023-01-05T11:44:38.480Z,2.20
2023-01-05T11:48:54.273Z,2.10
2023-01-05T11:53:01.083Z,2.22
2023-01-05T11:57:19.443Z,2.10
2023-01-05T12:01:49.543Z,2.22
2023-01-05T12:05:58.762Z,2.05
2023-01-05T12:10:23.655Z,2.00
2023-01-05T12:14:49.958Z,2.83
2023-01-05T12:19:15.142Z,2.30
2023-01-05T12:23:57.577Z,2.42
2023-01-05T12:29:50.558Z,2.67
2023-01-05T12:34:09.882Z,2.40
2023-01-05T12:38:18.182Z,2.50
2023-01-05T12:42:42.913Z,2.38
2023-01-05T12:46:56.018Z,2.20
2023-01-05T12:51:10.243Z,2.35
2023-01-05T12:55:20.348Z,2.88
2023-01-05T12:59:28.759Z,2.50
2023-01-05T13:04:03.163Z,2.10
2023-01-05T13:08:34.582Z,2.03
2023-01-05T13:12:44.017Z,2.13
2023-01-05T13:16:58.720Z,2.63
2023-01-05T13:21:14.573Z,2.15
2023-01-05T13:25:34.952Z,2.47
2023-01-05T13:29:49.229Z,2.28
2023-01-05T13:34:36.267Z,2.08
2023-01-05T13:39:05.361Z,1.83
2023-01-05T13:43:44.450Z,2.20
2023-01-05T13:48:00.974Z,2.00
2023-01-05T13:56:42.461Z,1.70
2023-01-05T14:00:53.124Z,2.42
2023-01-05T14:04:57.962Z,2.47
2023-01-05T14:09:07.150Z,2.40
2023-01-05T14:13:57.738Z,2.42
2023-01-05T14:18:08.557Z,1.80
2023-01-05T14:22:37.812Z,2.28
2023-01-05T14:27:22.331Z,2.05
2023-01-05T14:31:45.110Z,2.47
2023-01-05T14:35:51.241Z,8.10
2023-01-05T14:40:04.095Z,4.38
2023-01-05T14:44:35.013Z,3.72
2023-01-05T14:48:43.993Z,3.25
2023-01-05T14:53:12.200Z,2.65
2023-01-05T14:57:41.939Z,2.70
2023-01-05T15:02:08.122Z,4.75
2023-01-05T15:06:18.150Z,3.88
2023-01-05T15:15:30.812Z,6.57
2023-01-05T15:20:09.383Z,4.43
2023-01-05T15:24:56.875Z,3.55
2023-01-05T15:29:20.272Z,4.57
2023-01-05T15:33:35.453Z,3.00
2023-01-05T15:37:44.262Z,4.03
2023-01-05T15:41:48.300Z,3.30
2023-01-05T15:45:56.831Z,3.63
2023-01-05T15:50:03.939Z,4.60
2023-01-05T15:54:23.360Z,5.38
2023-01-05T15:58:31.289Z,3.83
2023-01-05T16:02:36.334Z,3.20
2023-01-05T16:06:41.066Z,4.78
2023-01-05T16:10:51.938Z,4.07
2023-01-05T16:15:00.932Z,5.05
2023-01-05T16:19:13.085Z,9.65
2023-01-05T16:23:20.135Z,9.57
2023-01-05T16:27:25.258Z,6.00
2023-01-05T16:31:34.811Z,8.32
2023-01-05T16:35:51.686Z,8.77
2023-01-05T16:40:08.562Z,4.60
2023-01-05T16:44:15.566Z,4.70
2023-01-05T16:48:53.545Z,5.10
2023-01-05T16:53:13.011Z,3.95
2023-01-05T16:57:33.959Z,3.92
2023-01-05T17:01:48.202Z,5.10
2023-01-05T17:05:53.603Z,5.15
2023-01-05T17:14:25.864Z,8.23
2023-01-05T17:18:31.399Z,7.07
2023-01-05T17:22:35.872Z,6.70
2023-01-05T17:26:41.937Z,5.80
2023-01-05T17:30:47.853Z,5.57
2023-01-05T17:34:53.099Z,5.07
2023-01-05T17:38:56.455Z,4.57
2023-01-05T17:43:09.780Z,7.30
2023-01-05T17:47:14.285Z,8.68
2023-01-05T17:51:21.539Z,7.00
2023-01-05T17:55:25.578Z,7.05
2023-01-05T17:59:29.874Z,7.97
2023-01-05T18:03:33.845Z,5.60
2023-01-05T18:07:39.660Z,5.38
2023-01-05T18:11:46.456Z,5.65
2023-01-05T18:15:53.622Z,4.97
2023-01-05T18:19:56.993Z,6.20
2023-01-05T18:24:01.847Z,6.85
2023-01-05T18:28:08.950Z,7.05
2023-01-05T18:32:13.207Z,13.20
2023-01-05T18:36:19.842Z,7.70
2023-01-05T18:40:24.547Z,9.23
2023-01-05T18:44:31.330Z,7.55
2023-01-05T18:48:34.931Z,8.15
2023-01-05T18:52:38.577Z,9.27
2023-01-05T18:56:43.554Z,10.40
2023-01-05T19:00:47.776Z,14.98
2023-01-05T19:04:51.659Z,14.45
2023-01-05T19:13:01.271Z,13.57
2023-01-05T19:17:09.856Z,11.27
2023-01-05T19:21:13.673Z,10.23
2023-01-05T19:25:22.923Z,7.93
2023-01-05T19:29:30.035Z,10.35
2023-01-05T19:33:33.827Z,8.35
2023-01-05T19:41:50.527Z,14.77
2023-01-05T19:45:59.250Z,9.40
2023-01-05T19:50:02.297Z,9.30
2023-01-05T19:54:12.659Z,9.45
2023-01-05T19:58:15.468Z,11.20
2023-01-05T20:02:26.930Z,8.90
2023-01-05T20:06:38.281Z,7.82
2023-01-05T20:10:42.284Z,8.88
2023-01-05T20:14:46.326Z,9.48
2023-01-05T20:18:50.865Z,8.93
2023-01-05T20:22:54.323Z,8.30
2023-01-05T20:27:02.533Z,8.13
2023-01-05T20:31:07.067Z,9.18
2023-01-05T20:35:14.469Z,8.60
2023-01-05T20:39:20.217Z,7.45
2023-01-05T20:43:24.613Z,9.00
2023-01-05T20:47:29.926Z,7.10
2023-01-05T20:51:34.593Z,8.60
2023-01-05T20:55:40.432Z,23.88
2023-01-05T20:59:44.881Z,14.63
2023-01-05T21:03:50.483Z,7.65
2023-01-05T21:07:59.837Z,8.82
2023-01-05T21:12:03.436Z,11.05
2023-01-05T21:16:08.022Z,7.85
2023-01-05T21:20:11.202Z,9.60
2023-01-05T21:24:22.723Z,8.73
2023-01-05T21:28:27.690Z,9.95
2023-01-05T21:32:34.401Z,8.88
2023-01-05T21:36:38.813Z,6.68
2023-01-05T21:40:47.468Z,5.85
2023-01-05T21:44:50.888Z,8.18
2023-01-05T21:48:53.820Z,7.88
2023-01-05T21:53:14.511Z,7.75
2023-01-05T21:57:21.512Z,7.60
2023-01-05T22:01:31.929Z,6.75
2023-01-05T22:05:40.682Z,6.60
2023-01-05T22:09:44.630Z,7.00
2023-01-05T22:13:53.881Z,7.97
2023-01-05T22:17:57.127Z,8.82
2023-01-05T22:22:16.610Z,6.93
2023-01-05T22:26:23.739Z,8.05
2023-01-05T22:30:28.361Z,8.25
2023-01-05T22:34:33.003Z,7.32
2023-01-05T22:38:38.638Z,8.77
2023-01-05T22:42:48.219Z,5.18
2023-01-05T22:46:52.909Z,5.32
2023-01-05T22:50:57.218Z,2.80
2023-01-05T22:55:04.512Z,1.83
2023-01-05T22:59:08.722Z,1.73
2023-01-05T23:03:14.099Z,1.50
2023-01-05T23:07:27.265Z,1.30
2023-01-05T23:11:34.709Z,1.50
2023-01-05T23:15:44.065Z,1.58
2023-01-05T23:19:49.439Z,1.48
2023-01-05T23:23:53.237Z,1.20
2023-01-05T23:32:14.104Z,1.10
2023-01-05T23:36:29.341Z,1.13
2023-01-05T23:40:33.045Z,1.15
2023-01-05T23:44:36.403Z,1.25
2023-01-05T23:48:41.194Z,1.20
2023-01-05T23:52:50.078Z,0.90
2023-01-05T23:56:53.752Z,0.90
